Time;durP1;ratioP1;P1;durP2;ratioP2;P2;SDS_P1;SDS_P2;PMS_P1;PMS_P2;Temp;Humidity;BMP_temperature;BMP_pressure;BME280_temperature;BME280_humidity;BME280_pressure;Samples;Min_cycle;Max_cycle;Signal;HPM_P1;HPM_P2
2022/09/13 00:01:17;;;;;;;10.43;6.70;;;;;;;11.10;55.13;99884.13;5112551;28;20467;-56
2022/09/13 00:03:42;;;;;;;7.97;6.22;;;;;;;11.03;55.16;99881.09;5111790;28;20072;-58
2022/09/13 00:06:18;;;;;;;9.20;6.45;;;;;;;10.96;55.68;99886.09;5111207;27;20051;-54
2022/09/13 00:08:45;;;;;;;12.10;6.70;;;;;;;10.99;55.26;99869.78;5111810;28;20039;-57
2022/09/13 00:11:20;;;;;;;8.93;6.70;;;;;;;10.89;55.78;99879.56;5111619;28;20028;-52
2022/09/13 00:13:46;;;;;;;9.07;6.35;;;;;;;10.82;55.76;99872.97;5111399;28;20039;-57
2022/09/13 00:16:14;;;;;;;9.05;6.80;;;;;;;10.81;55.90;99884.66;5111325;28;20034;-58
2022/09/13 00:18:40;;;;;;;9.50;6.93;;;;;;;10.78;56.36;99877.75;5111494;28;20051;-56
2022/09/13 00:21:09;;;;;;;9.10;6.60;;;;;;;10.90;55.75;99865.19;5111644;28;20027;-56
2022/09/13 00:23:35;;;;;;;10.27;6.45;;;;;;;10.56;56.46;99844.66;5111289;28;20477;-51
2022/09/13 00:26:10;;;;;;;10.40;7.18;;;;;;;10.48;56.24;99833.69;5111117;28;20028;-52
2022/09/13 00:28:36;;;;;;;11.07;6.30;;;;;;;10.59;56.93;99867.63;5110909;28;20063;-49
2022/09/13 00:31:03;;;;;;;7.72;6.45;;;;;;;10.53;56.83;99869.00;5110853;28;20100;-48
2022/09/13 00:33:29;;;;;;;9.98;6.85;;;;;;;10.38;56.87;99841.59;5110962;28;20028;-51
2022/09/13 00:35:55;;;;;;;10.13;6.90;;;;;;;10.45;57.29;99858.03;5109832;28;20061;-52
2022/09/13 00:38:21;;;;;;;8.55;6.68;;;;;;;10.35;57.37;99865.91;5110756;28;20031;-54
2022/09/13 00:40:46;;;;;;;8.02;6.70;;;;;;;10.23;58.02;99856.19;5110598;28;20152;-51
2022/09/13 00:43:18;;;;;;;10.73;6.13;;;;;;;10.33;57.61;99854.47;5111466;28;20035;-55
2022/09/13 00:45:45;;;;;;;10.07;6.57;;;;;;;10.26;57.61;99862.16;5110954;28;20027;-55
2022/09/13 00:48:21;;;;;;;9.98;7.20;;;;;;;10.28;57.93;99857.53;5111255;28;20418;-51
2022/09/13 00:50:52;;;;;;;8.95;6.43;;;;;;;10.24;57.67;99861.41;5111249;28;20032;-50
2022/09/13 00:53:29;;;;;;;10.50;6.55;;;;;;;10.25;57.45;99864.94;5110682;28;20030;-52
2022/09/13 00:55:59;;;;;;;10.10;6.53;;;;;;;10.11;58.33;99869.53;5111244;28;20032;-50
2022/09/13 00:58:52;;;;;;;9.38;6.78;;;;;;;10.13;57.82;99870.31;5111029;28;20038;-52
2022/09/13 01:01:22;;;;;;;10.90;6.78;;;;;;;10.05;57.85;99870.91;5111248;28;20027;-54
2022/09/13 01:03:48;;;;;;;11.18;7.43;;;;;;;9.76;58.40;99833.03;5110895;28;20043;-51
2022/09/13 01:06:21;;;;;;;9.60;6.85;;;;;;;10.14;58.00;99868.47;5110497;28;20043;-53
2022/09/13 01:08:51;;;;;;;13.27;7.07;;;;;;;10.05;57.79;99849.50;5111154;28;20046;-51
2022/09/13 01:11:31;;;;;;;9.00;7.15;;;;;;;10.22;57.53;99858.00;5110775;28;20032;-56
2022/09/13 01:13:57;;;;;;;10.57;6.80;;;;;;;10.03;58.00;99862.16;5110600;28;20455;-54
2022/09/13 01:16:23;;;;;;;12.85;6.85;;;;;;;9.97;58.37;99853.75;5110174;28;20063;-52
2022/09/13 01:18:48;;;;;;;10.10;6.93;;;;;;;10.03;57.96;99854.13;5110846;28;20050;-53
2022/09/13 01:21:32;;;;;;;13.18;7.07;;;;;;;10.14;57.46;99860.44;5111017;28;20037;-55
2022/09/13 01:24:40;;;;;;;9.35;6.97;;;;;;;10.12;57.59;99860.53;5110387;28;20061;-54
2022/09/13 01:27:30;;;;;;;11.85;7.40;;;;;;;9.93;58.54;99861.13;5110893;28;20104;-53
2022/09/13 01:30:16;;;;;;;12.57;6.85;;;;;;;9.99;57.84;99874.03;5109752;28;20036;-55
2022/09/13 01:33:20;;;;;;;10.32;7.15;;;;;;;10.00;58.06;99864.19;5110850;28;20034;-54
2022/09/13 01:35:55;;;;;;;9.60;6.55;;;;;;;10.14;57.46;99863.97;5110899;28;20023;-57
2022/09/13 01:38:35;;;;;;;12.07;7.45;;;;;;;10.04;57.89;99861.16;5110726;28;20064;-56
2022/09/13 01:41:28;;;;;;;8.38;6.95;;;;;;;10.04;57.77;99862.97;5114269;28;20035;-53
2022/09/13 01:44:15;;;;;;;9.38;6.70;;;;;;;10.05;57.73;99862.88;5112737;28;20047;-51
2022/09/13 01:47:11;;;;;;;9.80;7.03;;;;;;;10.14;57.30;99863.13;5115048;28;20040;-56
2022/09/13 01:50:12;;;;;;;9.77;7.32;;;;;;;10.17;57.17;99869.09;5114029;28;20118;-55
2022/09/13 01:53:04;;;;;;;8.00;6.35;;;;;;;10.10;57.18;99853.63;5114519;28;20031;-56
2022/09/13 01:55:46;;;;;;;14.00;6.88;;;;;;;10.13;57.50;99851.56;5113409;28;20447;-51
2022/09/13 01:58:35;;;;;;;10.73;6.93;;;;;;;10.25;56.98;99851.56;5114650;28;20149;-53
2022/09/13 02:01:02;;;;;;;9.95;7.55;;;;;;;10.10;57.59;99857.13;5104251;28;20050;-56
2022/09/13 02:03:44;;;;;;;8.38;6.97;;;;;;;10.14;57.72;99849.75;5114046;28;20031;-55
2022/09/13 02:06:14;;;;;;;9.50;6.72;;;;;;;9.87;57.35;99821.50;5114548;28;20050;-55
2022/09/13 02:08:44;;;;;;;7.93;6.70;;;;;;;10.19;57.37;99852.91;5113644;28;20107;-56
2022/09/13 02:11:12;;;;;;;10.93;7.45;;;;;;;10.11;57.40;99856.16;5114083;28;20081;-51
2022/09/13 02:14:06;;;;;;;12.60;7.47;;;;;;;10.20;57.20;99839.41;5114333;28;20037;-52
2022/09/13 02:16:39;;;;;;;11.02;7.38;;;;;;;10.09;57.52;99843.91;5094227;28;20496;-51
2022/09/13 02:19:20;;;;;;;10.30;7.13;;;;;;;10.07;57.82;99841.34;5093684;28;20033;-52
2022/09/13 02:21:51;;;;;;;12.93;7.55;;;;;;;9.98;57.63;99844.75;5104973;28;20035;-54
2022/09/13 02:24:24;;;;;;;8.55;7.40;;;;;;;9.93;57.81;99841.59;5114434;28;20059;-55
2022/09/13 02:26:53;;;;;;;9.02;7.18;;;;;;;9.91;57.63;99844.34;5113942;27;20027;-55
2022/09/13 02:29:23;;;;;;;11.52;7.20;;;;;;;9.91;57.80;99836.34;5112840;28;20108;-52
2022/09/13 02:32:17;;;;;;;10.13;7.32;;;;;;;9.84;58.23;99843.97;5113958;28;20089;-56
2022/09/13 02:35:12;;;;;;;9.38;7.00;;;;;;;9.87;57.79;99834.88;5113006;28;20039;-49
2022/09/13 02:37:41;;;;;;;11.52;7.43;;;;;;;9.60;58.64;99836.03;5090511;28;20047;-55
2022/09/13 02:40:13;;;;;;;9.30;7.63;;;;;;;9.60;59.00;99831.53;5113939;28;20023;-50
2022/09/13 02:42:46;;;;;;;10.13;7.35;;;;;;;9.58;58.98;99827.28;5113962;28;20023;-54
2022/09/13 02:45:14;;;;;;;10.88;6.95;;;;;;;9.46;59.37;99834.41;5114035;28;20479;-54
2022/09/13 02:47:46;;;;;;;9.25;6.95;;;;;;;9.54;58.79;99837.34;5113283;28;20522;-56
2022/09/13 02:50:40;;;;;;;10.07;7.68;;;;;;;9.61;58.53;99827.88;5113194;28;20032;-51
2022/09/13 02:53:44;;;;;;;10.30;7.47;;;;;;;9.65;58.44;99830.34;5113511;27;20101;-55
2022/09/13 02:56:09;;;;;;;10.93;7.70;;;;;;;9.56;58.87;99832.75;5061097;28;20044;-56
2022/09/13 02:59:03;;;;;;;11.50;7.30;;;;;;;9.55;58.80;99831.03;5093047;28;20032;-55
2022/09/13 03:01:28;;;;;;;10.50;7.63;;;;;;;9.44;59.08;99833.69;5086832;28;20040;-55
2022/09/13 03:03:54;;;;;;;9.85;7.22;;;;;;;9.46;59.24;99826.41;5096481;28;20023;-52
2022/09/13 03:06:27;;;;;;;10.73;7.78;;;;;;;9.62;58.95;99829.59;5112722;28;20135;-55
2022/09/13 03:09:00;;;;;;;9.43;7.35;;;;;;;9.54;58.54;99793.75;5113234;28;20043;-51
2022/09/13 03:11:44;;;;;;;10.10;8.15;;;;;;;9.79;58.29;99819.44;5113005;28;20471;-55
2022/09/13 03:14:12;;;;;;;14.10;8.23;;;;;;;9.89;57.80;99828.44;5112161;28;20449;-53
2022/09/13 03:17:04;;;;;;;11.75;7.85;;;;;;;9.89;57.91;99807.06;5112887;28;20074;-50
2022/09/13 03:20:11;;;;;;;9.95;7.63;;;;;;;10.04;57.44;99814.84;5112300;28;20041;-53
2022/09/13 03:23:11;;;;;;;9.65;7.57;;;;;;;10.27;56.77;99813.03;5112020;28;20035;-55
2022/09/13 03:25:36;;;;;;;10.82;7.28;;;;;;;10.53;56.27;99817.28;5092296;28;20032;-53
2022/09/13 03:28:13;;;;;;;12.65;7.47;;;;;;;10.76;55.31;99810.06;5092337;28;20036;-53
2022/09/13 03:30:47;;;;;;;10.10;7.10;;;;;;;10.85;55.29;99805.75;5107613;28;20388;-55
2022/09/13 03:33:39;;;;;;;11.93;7.25;;;;;;;11.27;54.37;99819.25;5112943;28;20040;-55
2022/09/13 03:36:13;;;;;;;11.18;7.03;;;;;;;12.28;51.33;99810.72;5112280;28;20028;-52
2022/09/13 03:38:52;;;;;;;8.70;6.80;;;;;;;13.24;48.70;99806.63;5113072;28;20036;-52
2022/09/13 03:41:23;;;;;;;11.77;6.95;;;;;;;14.02;46.57;99800.31;5112941;28;20079;-54
2022/09/13 03:43:54;;;;;;;10.90;6.80;;;;;;;14.80;44.70;99816.28;5112877;28;20390;-55
2022/09/13 03:46:26;;;;;;;8.93;6.40;;;;;;;15.47;42.91;99805.13;5111773;28;20442;-53
2022/09/13 03:48:53;;;;;;;12.90;6.97;;;;;;;16.17;41.42;99804.25;5112540;27;20028;-54
2022/09/13 03:51:18;;;;;;;9.57;6.63;;;;;;;16.39;40.18;99780.34;5113640;28;20042;-54
2022/09/13 03:53:55;;;;;;;11.77;6.78;;;;;;;16.88;39.37;99806.72;5112183;28;20032;-50
2022/09/13 03:56:20;;;;;;;9.85;6.63;;;;;;;17.04;38.66;99796.97;5112469;28;20119;-48
2022/09/13 03:58:47;;;;;;;8.70;6.25;;;;;;;17.58;38.30;99792.94;5112105;28;20111;-53
2022/09/13 04:01:12;;;;;;;10.18;6.60;;;;;;;18.24;36.77;99787.41;5112601;28;20059;-54
2022/09/13 04:03:38;;;;;;;10.23;6.70;;;;;;;18.62;35.32;99786.72;5111786;28;20158;-50
2022/09/13 04:06:04;;;;;;;9.10;6.50;;;;;;;18.63;35.34;99788.41;5111118;28;20035;-52
2022/09/13 04:08:33;;;;;;;9.48;6.45;;;;;;;19.08;34.89;99780.53;5112197;28;20057;-53
2022/09/13 04:11:00;;;;;;;9.10;6.32;;;;;;;19.89;33.07;99779.13;5112307;28;20031;-52
2022/09/13 04:13:25;;;;;;;9.30;6.03;;;;;;;20.38;31.62;99777.75;5111815;28;20463;-55
2022/09/13 04:15:51;;;;;;;8.52;6.93;;;;;;;20.87;31.32;99767.25;5111783;28;20067;-55
2022/09/13 04:18:17;;;;;;;10.18;6.28;;;;;;;21.65;29.69;99772.81;5111822;28;20034;-53
2022/09/13 04:20:42;;;;;;;9.82;6.55;;;;;;;21.87;29.51;99778.19;5111614;28;20031;-57
2022/09/13 04:23:08;;;;;;;9.95;6.28;;;;;;;21.57;29.84;99774.78;5111459;28;20110;-52
2022/09/13 04:25:37;;;;;;;9.13;6.75;;;;;;;21.43;30.21;99790.19;5111296;28;20100;-55
2022/09/13 04:28:03;;;;;;;8.75;6.45;;;;;;;22.07;28.93;99786.53;5110984;28;20043;-56
2022/09/13 04:30:29;;;;;;;10.23;6.82;;;;;;;22.98;27.62;99797.41;5110848;28;20027;-55
2022/09/13 04:32:58;;;;;;;10.10;6.53;;;;;;;22.62;27.69;99791.22;5111707;28;20093;-57
2022/09/13 04:35:24;;;;;;;10.38;6.75;;;;;;;21.65;29.23;99802.78;5111791;28;20043;-58
2022/09/13 04:37:50;;;;;;;9.30;7.22;;;;;;;20.86;30.71;99803.66;5111281;28;20032;-56
2022/09/13 04:40:15;;;;;;;8.60;7.47;;;;;;;20.12;31.61;99802.69;5111760;28;20090;-56
2022/09/13 04:42:43;;;;;;;9.73;7.28;;;;;;;19.25;33.36;99802.13;5110576;28;20019;-51
2022/09/13 04:45:09;;;;;;;9.48;7.20;;;;;;;18.36;34.84;99793.28;5091179;28;20082;-55
2022/09/13 04:47:35;;;;;;;9.23;7.22;;;;;;;17.36;36.97;99801.56;5095991;28;20542;-59
2022/09/13 04:50:00;;;;;;;11.43;7.65;;;;;;;16.84;38.19;99799.09;5110395;28;20072;-51
2022/09/13 04:52:26;;;;;;;10.90;8.18;;;;;;;16.48;38.54;99811.81;5111408;28;20486;-57
2022/09/13 04:54:51;;;;;;;11.45;8.20;;;;;;;15.83;40.00;99813.13;5111123;28;20039;-57
2022/09/13 04:57:16;;;;;;;14.00;8.70;;;;;;;15.00;41.67;99781.94;5110701;28;20036;-52
2022/09/13 04:59:42;;;;;;;12.77;8.40;;;;;;;14.85;42.49;99808.59;5110993;28;20035;-53
2022/09/13 05:02:08;;;;;;;9.75;8.13;;;;;;;14.46;43.38;99810.47;5110498;28;20023;-56
2022/09/13 05:04:33;;;;;;;12.63;8.45;;;;;;;14.29;43.81;99817.50;5109395;28;20035;-52
2022/09/13 05:06:59;;;;;;;13.38;8.57;;;;;;;14.13;44.28;99823.50;5109955;28;20130;-58
2022/09/13 05:09:24;;;;;;;14.07;9.07;;;;;;;13.92;44.56;99818.34;5110982;28;20043;-57
2022/09/13 05:11:50;;;;;;;16.17;8.40;;;;;;;13.72;45.37;99821.06;5110856;28;20045;-55
2022/09/13 05:14:15;;;;;;;16.83;8.77;;;;;;;13.52;45.93;99817.56;5110138;28;20116;-58
2022/09/13 05:16:41;;;;;;;12.60;9.23;;;;;;;13.54;46.01;99815.59;5110377;28;20042;-55
2022/09/13 05:19:07;;;;;;;13.02;8.90;;;;;;;13.32;46.33;99798.72;5110678;28;20046;-56
2022/09/13 05:21:33;;;;;;;13.00;9.15;;;;;;;13.14;46.80;99813.88;5109895;28;20039;-56
2022/09/13 05:23:58;;;;;;;16.65;8.90;;;;;;;13.03;47.35;99812.16;5110040;28;20027;-53
2022/09/13 05:26:30;;;;;;;13.73;9.13;;;;;;;12.96;47.30;99806.50;5110564;28;20430;-58
2022/09/13 05:28:59;;;;;;;12.45;8.82;;;;;;;12.77;47.98;99808.16;5110866;28;20035;-54
2022/09/13 05:31:30;;;;;;;14.43;8.65;;;;;;;12.73;48.59;99820.16;5110257;28;20057;-53
2022/09/13 05:34:09;;;;;;;14.82;8.98;;;;;;;12.81;48.05;99821.34;5110573;28;20035;-55
2022/09/13 05:36:35;;;;;;;11.23;8.95;;;;;;;12.74;48.29;99812.97;5108815;28;20040;-56
2022/09/13 05:39:01;;;;;;;14.10;9.32;;;;;;;12.62;48.93;99810.38;5110465;28;20027;-54
2022/09/13 05:41:27;;;;;;;14.35;9.23;;;;;;;12.53;48.79;99805.00;5109500;28;20055;-53
2022/09/13 05:43:52;;;;;;;12.98;8.98;;;;;;;12.65;48.72;99803.91;5110155;28;20486;-55
2022/09/13 05:46:19;;;;;;;11.88;9.13;;;;;;;12.81;48.79;99821.34;5110239;28;20122;-57
2022/09/13 05:48:46;;;;;;;13.57;8.98;;;;;;;13.01;48.00;99819.53;5109782;28;20040;-54
2022/09/13 05:51:17;;;;;;;15.80;8.48;;;;;;;13.01;48.23;99822.19;5109847;28;20400;-57
2022/09/13 05:53:45;;;;;;;14.90;8.65;;;;;;;12.95;47.97;99815.53;5109938;28;20059;-57
2022/09/13 05:56:16;;;;;;;12.98;8.63;;;;;;;13.00;48.04;99817.81;5110136;28;20038;-56
2022/09/13 05:58:44;;;;;;;14.40;9.18;;;;;;;12.95;48.33;99807.47;5110167;28;20024;-56
2022/09/13 06:01:11;;;;;;;12.20;8.95;;;;;;;13.07;47.91;99821.63;5109475;28;20080;-55
2022/09/13 06:03:37;;;;;;;14.88;8.43;;;;;;;12.92;48.25;99815.81;5109822;28;20035;-53
2022/09/13 06:06:03;;;;;;;14.35;8.38;;;;;;;12.78;47.96;99790.22;5109974;28;20047;-54
2022/09/13 06:08:31;;;;;;;15.52;8.65;;;;;;;12.84;48.11;99819.19;5109753;28;20040;-60
2022/09/13 06:10:58;;;;;;;14.10;8.70;;;;;;;12.87;48.38;99815.41;5110113;28;20118;-53
2022/09/13 06:13:24;;;;;;;14.77;9.20;;;;;;;12.90;48.63;99815.13;5110073;28;20472;-52
2022/09/13 06:15:51;;;;;;;12.88;8.85;;;;;;;12.88;48.57;99814.41;5109600;28;20047;-54
2022/09/13 06:18:16;;;;;;;13.35;9.60;;;;;;;12.85;48.56;99809.31;5109725;28;20489;-55
2022/09/13 06:20:42;;;;;;;10.95;7.18;;;;;;;13.02;47.77;99814.00;5109602;28;20035;-53
2022/09/13 06:23:08;;;;;;;13.95;9.25;;;;;;;12.99;48.05;99808.91;5109377;28;20209;-54
2022/09/13 06:25:33;;;;;;;16.08;9.70;;;;;;;13.11;48.20;99819.53;5109624;28;20129;-54
2022/09/13 06:27:59;;;;;;;14.85;9.43;;;;;;;13.07;48.13;99808.19;5113416;28;20130;-58
2022/09/13 06:30:24;;;;;;;12.57;9.60;;;;;;;13.13;47.61;99822.91;5113820;28;20034;-54
2022/09/13 06:32:49;;;;;;;16.77;9.57;;;;;;;13.20;47.82;99811.47;5112985;28;20031;-53
2022/09/13 06:35:15;;;;;;;14.05;9.05;;;;;;;13.40;47.87;99808.78;5111781;28;20043;-55
2022/09/13 06:37:41;;;;;;;11.98;8.63;;;;;;;13.66;46.88;99815.41;5112045;28;20039;-54
2022/09/13 06:40:06;;;;;;;15.05;8.75;;;;;;;13.81;46.21;99805.03;5112788;28;20019;-54
2022/09/13 06:42:34;;;;;;;14.00;9.23;;;;;;;13.85;46.34;99811.84;5111269;28;20210;-54
2022/09/13 06:44:59;;;;;;;13.02;8.38;;;;;;;14.11;45.15;99812.03;5094174;28;20411;-60
2022/09/13 06:47:25;;;;;;;11.27;8.40;;;;;;;13.94;45.39;99810.97;5109897;28;20035;-54
2022/09/13 06:49:50;;;;;;;14.07;8.63;;;;;;;13.79;46.13;99815.97;5111796;28;20119;-56
2022/09/13 06:52:16;;;;;;;15.30;8.95;;;;;;;13.86;45.75;99814.38;5112280;28;20524;-55
2022/09/13 06:54:42;;;;;;;17.33;8.90;;;;;;;13.78;46.24;99814.28;5112847;28;20069;-58
2022/09/13 06:57:08;;;;;;;16.45;8.25;;;;;;;13.84;45.69;99804.75;5112542;28;20043;-57
2022/09/13 06:59:33;;;;;;;13.88;8.32;;;;;;;13.76;46.06;99808.19;5111843;28;20036;-55
2022/09/13 07:01:59;;;;;;;17.90;8.48;;;;;;;13.75;45.94;99806.50;5113313;28;20084;-55
2022/09/13 07:04:24;;;;;;;14.90;8.93;;;;;;;13.74;45.90;99796.69;5111799;28;20099;-55
2022/09/13 07:06:50;;;;;;;13.02;8.45;;;;;;;13.77;46.09;99796.44;5112034;27;20055;-55
2022/09/13 07:09:20;;;;;;;12.93;8.68;;;;;;;13.82;46.18;99795.97;5112266;28;20043;-55
2022/09/13 07:11:47;;;;;;;17.33;9.15;;;;;;;14.14;45.45;99795.59;5112619;28;20023;-51
2022/09/13 07:14:18;;;;;;;13.48;8.98;;;;;;;14.26;45.37;99798.94;5098425;28;20093;-55
2022/09/13 07:16:45;;;;;;;13.98;8.88;;;;;;;14.41;44.95;99782.31;5092230;28;20441;-56
2022/09/13 07:19:16;;;;;;;17.30;9.55;;;;;;;14.45;45.29;99765.66;5112310;28;20063;-54
2022/09/13 07:21:42;;;;;;;18.88;9.35;;;;;;;14.83;44.10;99789.03;5112654;28;20032;-56
2022/09/13 07:24:08;;;;;;;17.38;10.20;;;;;;;15.06;43.80;99787.56;5111537;28;20107;-54
2022/09/13 07:26:34;;;;;;;15.57;8.52;;;;;;;15.45;42.47;99788.25;5111566;28;20043;-51
2022/09/13 07:29:04;;;;;;;15.15;9.00;;;;;;;15.65;42.17;99781.63;5111023;28;20475;-57
2022/09/13 07:31:35;;;;;;;14.95;8.88;;;;;;;15.90;41.29;99783.69;5109790;28;20035;-53
2022/09/13 07:34:06;;;;;;;15.27;8.82;;;;;;;16.26;41.16;99763.78;5111284;28;20032;-58
2022/09/13 07:36:34;;;;;;;12.13;8.30;;;;;;;16.86;39.76;99770.03;5109644;28;20024;-54
2022/09/13 07:39:00;;;;;;;13.98;8.50;;;;;;;17.36;38.04;99758.28;5111199;28;20126;-58
2022/09/13 07:41:27;;;;;;;15.20;8.32;;;;;;;17.72;37.32;99764.31;5109404;28;20024;-53
2022/09/13 07:43:53;;;;;;;18.50;9.00;;;;;;;18.08;36.59;99753.06;5103143;28;20032;-59
2022/09/13 07:46:24;;;;;;;11.68;7.85;;;;;;;18.59;35.74;99757.25;5091809;28;20107;-58
2022/09/13 07:48:55;;;;;;;13.55;7.18;;;;;;;19.25;34.87;99751.38;5110840;28;20163;-56
2022/09/13 07:51:23;;;;;;;10.93;7.00;;;;;;;20.09;32.40;99755.00;5112371;28;20023;-56
2022/09/13 07:53:51;;;;;;;17.35;8.07;;;;;;;21.16;31.19;99746.38;5111565;28;20039;-60
2022/09/13 07:56:19;;;;;;;11.80;6.55;;;;;;;21.92;29.49;99748.47;5112088;28;20035;-60
2022/09/13 07:58:47;;;;;;;14.85;7.30;;;;;;;21.52;29.95;99750.91;5109738;28;20024;-55
2022/09/13 08:01:22;;;;;;;11.48;6.68;;;;;;;21.12;30.93;99742.38;5112649;28;20036;-64
2022/09/13 08:03:53;;;;;;;13.70;6.13;;;;;;;20.70;30.96;99733.97;5111319;28;20043;-62
2022/09/13 08:06:19;;;;;;;11.55;6.43;;;;;;;20.21;31.26;99715.44;5105155;28;20098;-56
2022/09/13 08:08:45;;;;;;;12.57;6.70;;;;;;;19.96;31.74;99741.22;5091109;28;20044;-54
2022/09/13 08:11:17;;;;;;;10.10;6.35;;;;;;;19.78;32.60;99740.53;5092426;28;20059;-58
2022/09/13 08:13:43;;;;;;;10.38;6.85;;;;;;;19.61;32.77;99736.28;5105440;28;20028;-61
2022/09/13 08:16:08;;;;;;;11.82;6.93;;;;;;;19.54;32.60;99725.34;5111398;28;20028;-57
2022/09/13 08:18:34;;;;;;;14.25;7.18;;;;;;;19.42;32.96;99735.81;5110409;28;20100;-56
2022/09/13 08:21:00;;;;;;;13.15;7.15;;;;;;;19.26;32.79;99734.06;5111178;28;20031;-57
2022/09/13 08:23:26;;;;;;;10.93;6.47;;;;;;;18.91;33.21;99736.38;5110667;28;20387;-56
2022/09/13 08:25:52;;;;;;;11.00;6.45;;;;;;;18.94;33.03;99727.88;5111565;28;20027;-53
2022/09/13 08:28:22;;;;;;;13.55;6.78;;;;;;;18.92;33.48;99725.31;5111151;28;20368;-54
2022/09/13 08:30:49;;;;;;;9.50;5.78;;;;;;;19.22;33.29;99739.03;5110461;28;20027;-60
2022/09/13 08:33:14;;;;;;;10.63;6.25;;;;;;;18.94;33.28;99722.44;5111110;28;20035;-53
2022/09/13 08:35:48;;;;;;;10.40;5.82;;;;;;;18.72;33.79;99719.53;5109873;28;20039;-51
2022/09/13 08:38:13;;;;;;;10.05;5.00;;;;;;;18.66;34.01;99722.97;5109448;28;20030;-56
2022/09/13 08:40:42;;;;;;;9.20;4.68;;;;;;;18.79;33.79;99715.06;5109212;28;20036;-55
2022/09/13 08:43:37;;;;;;;7.63;4.90;;;;;;;19.14;33.52;99717.38;5109529;28;20077;-56
2022/09/13 08:46:34;;;;;;;8.75;4.60;;;;;;;19.51;33.53;99714.84;5109192;28;20046;-57
2022/09/13 08:49:06;;;;;;;10.43;5.07;;;;;;;19.47;32.69;99718.97;5104145;28;20035;-51
2022/09/13 08:51:43;;;;;;;7.45;4.68;;;;;;;19.39;32.92;99725.31;5111690;28;20028;-55
2022/09/13 08:54:12;;;;;;;12.02;5.15;;;;;;;18.96;32.96;99716.84;5111075;28;20035;-53
2022/09/13 08:56:45;;;;;;;7.40;4.93;;;;;;;18.54;33.91;99686.44;5110948;28;20057;-54
2022/09/13 08:59:19;;;;;;;8.02;4.88;;;;;;;18.50;33.95;99686.81;5111816;28;20080;-56
2022/09/13 09:01:59;;;;;;;8.20;5.20;;;;;;;18.27;34.36;99675.94;5111252;28;20157;-55
2022/09/13 09:04:24;;;;;;;8.63;5.28;;;;;;;18.35;34.16;99680.47;5110823;28;20783;-55
2022/09/13 09:06:54;;;;;;;7.88;5.05;;;;;;;18.22;34.67;99668.34;5110834;28;20082;-53
2022/09/13 09:09:21;;;;;;;4.80;4.30;;;;;;;18.34;33.99;99665.25;5111217;28;20056;-52
2022/09/13 09:11:50;;;;;;;8.32;4.40;;;;;;;18.57;33.79;99664.41;5110649;28;20402;-58
2022/09/13 09:14:34;;;;;;;6.40;3.75;;;;;;;18.88;32.97;99664.31;5110652;28;20104;-53
2022/09/13 09:17:07;;;;;;;4.97;3.72;;;;;;;18.77;32.20;99667.47;5111707;28;20088;-52
2022/09/13 09:19:39;;;;;;;5.75;3.30;;;;;;;18.62;32.84;99665.53;5111140;28;20034;-53
2022/09/13 09:22:14;;;;;;;5.50;2.63;;;;;;;18.55;32.23;99677.28;5111029;28;20034;-52
2022/09/13 09:24:48;;;;;;;7.38;2.67;;;;;;;18.26;32.75;99666.13;5110553;28;20379;-54
2022/09/13 09:27:17;;;;;;;6.57;2.35;;;;;;;18.21;33.02;99657.69;5111162;28;20139;-55
2022/09/13 09:29:46;;;;;;;10.50;2.70;;;;;;;18.37;32.46;99659.47;5110847;28;20471;-55
2022/09/13 09:32:40;;;;;;;10.00;2.40;;;;;;;18.43;32.36;99631.63;5110282;28;20476;-55
2022/09/13 09:35:19;;;;;;;2.30;2.10;;;;;;;18.29;32.72;99663.06;5111190;28;20024;-57
2022/09/13 09:37:55;;;;;;;8.48;2.45;;;;;;;18.13;33.04;99661.28;5111110;28;20039;-50
2022/09/13 09:40:21;;;;;;;3.40;2.63;;;;;;;18.01;33.12;99643.69;5110685;28;20034;-55
2022/09/13 09:42:48;;;;;;;4.35;2.78;;;;;;;18.16;32.82;99655.50;5109093;28;20031;-56
2022/09/13 09:45:22;;;;;;;7.57;3.20;;;;;;;18.17;33.21;99661.75;5110925;28;20036;-54
2022/09/13 09:47:50;;;;;;;5.15;2.65;;;;;;;17.96;33.62;99643.38;5110699;28;20028;-55
2022/09/13 09:50:42;;;;;;;7.70;2.80;;;;;;;17.85;34.06;99650.88;5110728;28;20325;-54
2022/09/13 09:53:15;;;;;;;4.28;2.75;;;;;;;17.97;33.97;99659.47;5110183;28;20081;-53
2022/09/13 09:56:05;;;;;;;5.10;2.53;;;;;;;17.78;34.30;99639.06;5111000;28;20114;-54
2022/09/13 09:58:49;;;;;;;6.90;2.72;;;;;;;17.72;34.65;99645.19;5111063;28;20028;-53
2022/09/13 10:01:23;;;;;;;4.50;2.53;;;;;;;17.56;34.75;99641.50;5113566;28;20063;-55
2022/09/13 10:03:52;;;;;;;6.05;2.40;;;;;;;17.54;34.84;99654.38;5114689;28;20110;-55
2022/09/13 10:06:21;;;;;;;5.47;2.47;;;;;;;17.35;35.16;99645.59;5114421;28;20127;-53
2022/09/13 10:09:02;;;;;;;4.68;2.60;;;;;;;17.31;35.61;99638.84;5114439;28;20086;-57
2022/09/13 10:11:38;;;;;;;4.93;2.70;;;;;;;17.35;35.91;99637.50;5114899;28;20038;-55
2022/09/13 10:14:04;;;;;;;8.57;2.92;;;;;;;17.21;35.81;99643.63;5115195;28;20376;-55
2022/09/13 10:16:30;;;;;;;8.23;3.30;;;;;;;17.10;36.45;99641.25;5114663;28;20032;-51
2022/09/13 10:19:25;;;;;;;4.13;2.67;;;;;;;17.22;36.07;99637.19;5114806;28;20130;-55
2022/09/13 10:22:04;;;;;;;9.48;2.80;;;;;;;17.02;36.47;99645.66;5114711;28;20035;-55
2022/09/13 10:24:32;;;;;;;3.53;2.33;;;;;;;16.83;36.36;99637.88;5114858;28;20028;-53
2022/09/13 10:26:58;;;;;;;3.75;2.47;;;;;;;16.68;36.38;99635.00;5114354;28;20028;-49
2022/09/13 10:29:27;;;;;;;6.57;2.72;;;;;;;16.78;36.74;99635.69;5113694;28;20101;-53
2022/09/13 10:31:56;;;;;;;5.30;2.50;;;;;;;16.73;36.61;99630.78;5114094;28;20491;-52
2022/09/13 10:34:29;;;;;;;4.25;2.45;;;;;;;16.61;36.93;99621.31;5113549;28;20487;-54
2022/09/13 10:37:03;;;;;;;6.40;2.70;;;;;;;16.58;37.03;99621.66;5113684;27;20034;-55
2022/09/13 10:39:33;;;;;;;7.90;2.25;;;;;;;16.71;36.34;99631.97;5113916;27;20121;-56
2022/09/13 10:42:05;;;;;;;4.90;2.17;;;;;;;16.68;35.94;99618.78;5113995;28;20027;-53
2022/09/13 10:44:32;;;;;;;7.28;2.65;;;;;;;16.62;36.00;99623.84;5113656;28;20495;-54
2022/09/13 10:47:02;;;;;;;4.10;2.38;;;;;;;16.48;35.90;99614.56;5114147;28;20444;-56
2022/09/13 10:49:53;;;;;;;3.03;2.35;;;;;;;16.58;36.06;99617.09;5113594;28;20114;-57
2022/09/13 10:52:26;;;;;;;5.43;2.35;;;;;;;16.47;36.28;99615.56;5113744;28;20028;-56
2022/09/13 10:54:52;;;;;;;4.40;2.65;;;;;;;16.24;36.80;99606.44;5114257;28;20035;-52
2022/09/13 10:57:48;;;;;;;7.22;2.55;;;;;;;16.43;36.72;99608.81;5112583;28;20080;-56
2022/09/13 11:00:21;;;;;;;5.53;2.35;;;;;;;16.31;36.76;99613.69;5112059;28;20047;-54
2022/09/13 11:03:31;;;;;;;3.88;2.10;;;;;;;16.39;36.85;99612.84;5113813;28;20028;-56
2022/09/13 11:06:06;;;;;;;4.88;1.80;;;;;;;16.24;36.54;99604.56;5089582;28;20512;-54
2022/09/13 11:09:10;;;;;;;4.90;2.10;;;;;;;16.18;37.07;99621.44;5113359;28;20463;-56
2022/09/13 11:11:57;;;;;;;4.28;1.80;;;;;;;16.29;36.50;99604.06;5104397;28;20073;-56
2022/09/13 11:15:01;;;;;;;1.85;1.60;;;;;;;16.14;36.46;99602.00;5113632;28;20514;-54
2022/09/13 11:17:51;;;;;;;8.60;1.90;;;;;;;16.19;36.37;99605.06;5105820;28;20035;-55
2022/09/13 11:20:33;;;;;;;8.25;2.10;;;;;;;16.09;36.48;99600.84;5113638;28;20085;-56
2022/09/13 11:23:20;;;;;;;1.70;1.40;;;;;;;16.10;36.67;99611.44;5113716;28;20058;-51
2022/09/13 11:26:11;;;;;;;5.20;1.95;;;;;;;16.10;36.76;99592.53;5113178;28;20042;-54
2022/09/13 11:28:36;;;;;;;3.40;2.10;;;;;;;15.96;37.16;99579.72;5112555;28;20041;-50
2022/09/13 11:31:14;;;;;;;3.30;2.30;;;;;;;16.10;37.36;99591.72;5113364;28;20338;-57
2022/09/13 11:34:06;;;;;;;2.40;1.92;;;;;;;16.15;37.43;99597.47;5113573;28;20443;-56
2022/09/13 11:36:50;;;;;;;4.72;2.80;;;;;;;16.15;37.67;99576.69;5111556;28;20106;-55
2022/09/13 11:39:46;;;;;;;3.83;2.40;;;;;;;16.19;37.74;99580.75;5112409;28;20031;-53
2022/09/13 11:42:29;;;;;;;4.28;2.30;;;;;;;16.03;37.93;99569.94;5108382;28;20079;-55
2022/09/13 11:45:19;;;;;;;2.60;2.25;;;;;;;16.20;37.59;99571.66;5094449;28;20044;-55
2022/09/13 11:48:04;;;;;;;7.22;2.10;;;;;;;16.12;37.13;99574.31;5112598;28;20450;-54
2022/09/13 11:50:54;;;;;;;3.35;2.08;;;;;;;16.05;37.54;99567.91;5112925;28;20123;-52
2022/09/13 11:53:37;;;;;;;4.30;1.92;;;;;;;15.88;38.03;99577.78;5113153;28;20059;-54
2022/09/13 11:56:09;;;;;;;5.90;1.90;;;;;;;15.96;37.67;99563.50;5112306;28;20039;-56